METAR Data
IDs: Format: Raw Decoded Include TAF

Data at: 0745 UTC 23 Feb 2019

PAGL 230730Z AUTO 17025G31KT 3SM UP BR OVC021 M01/M02 A3000 RMK AO2 PK WND 16031/0727 UPB18SNE18 P0000 FZRANO
PAGL 230717Z AUTO 17024KT 2 1/2SM -SN BR FEW004 OVC021 M01/M02 A3000 RMK AO2 PK WND 17029/0707 VIS 1 3/4V3 P0000 FZRANO
PAGL 230703Z AUTO 16025KT 1 1/4SM -SN BR FEW004 BKN015 OVC019 M01/M01 A3000 RMK AO2 PK WND 16028/0703 P0000 FZRANO
PAGL 230656Z AUTO 16026KT 1SM -SN BR FEW006 BKN010 OVC015 M01/M01 A2999 RMK AO2 PK WND 16030/0655 SLP153 P0000 T10111011 FZRANO
PAGL 230651Z AUTO 16027KT 1SM -SN BR FEW006 BKN010 OVC016 M01/M01 A2999 RMK AO2 PK WND 16030/0650 P0000 FZRANO
PAGL 230643Z AUTO 16026KT 3/4SM -SN BR FEW004 BKN010 OVC015 M01/M01 A2999 RMK AO2 PK WND 17030/0637 CIG 007V013 P0000 FZRANO
PAGL 230633Z AUTO 16027KT 3/4SM -SN BR FEW004 SCT010 OVC015 M01/M01 A2999 RMK AO2 PK WND 16030/0633 P0000 FZRANO
PAGL 230627Z AUTO 16027KT 1SM -SN BR FEW004 OVC015 M01/M01 A2999 RMK AO2 PK WND 16030/0626 P0000 FZRANO
PAGL 230619Z AUTO 16026KT 3/4SM -SN BR FEW006 OVC012 M01/M01 A2999 RMK AO2 PK WND 16030/0617 P0000 FZRANO
PAGL 230605Z AUTO 16026KT 1SM -SN BR FEW006 OVC012 M01/M01 A2999 RMK AO2 PK WND 16029/0604 P0000 FZRANO
PAGL 230556Z AUTO 16025KT 1SM -SN BR OVC012 M01/M01 A2999 RMK AO2 PK WND 16030/0548 UPB31E38SNE31B38 SLP153 P0000 60000 T10061011 11006 21022 51014 FZRANO
PAGL 230541Z AUTO 16024KT 1 1/2SM -SN BR OVC014 M01/M01 A2999 RMK AO2 PK WND 16029/0540 UPB31E38SNE31B38 P0000 FZRANO
PAGL 230532Z AUTO 16024KT 2SM UP BR OVC012 M01/M02 A2999 RMK AO2 PK WND 17029/0511 UPB31SNE31 P0000 FZRANO
PAGL 230510Z AUTO 17025KT 1 1/4SM -SN BR OVC012 M01/M02 A2998 RMK AO2 PK WND 17029/0503 P0000 FZRANO
PAGL 230456Z AUTO 17026KT 1SM -SN BR OVC012 M01/M01 A2998 RMK AO2 PK WND 17033/0402 SLP149 P0000 T10061011 FZRANO
PAGL 230442Z AUTO 17026KT 1 1/2SM -SN BR OVC012 M01/M02 A2998 RMK AO2 PK WND 17033/0402 P0000 FZRANO
PAGL 230423Z AUTO 16027KT 1SM -SN BR OVC012 M01/M02 A2997 RMK AO2 PK WND 17033/0402 P0000 FZRANO
PAGL 230356Z AUTO 17027KT 1/2SM SN FZFG OVC014 M01/M02 A2996 RMK AO2 PK WND 17033/0331 SLP143 P0000 T10061017 FZRANO
PAGL 230345Z AUTO 17027KT 1/2SM SN FZFG OVC014 M01/M02 A2996 RMK AO2 PK WND 17033/0331 P0000 FZRANO
PAGL 230320Z AUTO 16027KT 1/2SM SN FZFG FEW008 OVC016 M01/M01 A2995 RMK AO2 PK WND 17033/0308 P0000 FZRANO
PAGL 230307Z AUTO 16028KT 1/2SM SN FZFG SCT008 OVC014 M01/M01 A2995 RMK AO2 PK WND 17033/0300 P0000 FZRANO
PAGL 230256Z AUTO 16029G34KT 1/4SM SN FZFG BKN008 OVC014 M01/M01 A2995 RMK AO2 PK WND 15036/0231 CIG 004V009 SLP138 P0000 60000 T10111011 50001 FZRANO
PAGL 230230Z AUTO 16028G33KT 1/4SM SN FZFG BKN008 OVC012 M01/M02 A2995 RMK AO2 PK WND 15033/0230 CIG 005V010 P0000 FZRANO
PAGL 230156Z AUTO 15028KT 1/2SM SN FZFG BKN006 OVC011 M02/M02 A2995 RMK AO2 PK WND 15037/0057 CIG 005V009 SLP139 P0000 T10171017 FZRANO
PAGL 230153Z AUTO 15028KT 1/2SM SN FZFG OVC008 M02/M02 A2995 RMK AO2 PK WND 15037/0057 CIG 005V011 P0000 FZRANO
PAGL 230137Z AUTO 16028G35KT 1/2SM SN FZFG OVC010 M02/M02 A2995 RMK AO2 PK WND 15037/0057 CIG 006V014 P0000 FZRANO
PAGL 230056Z AUTO 15031KT 1/4SM +SN FZFG OVC010 M02/M02 A2994 RMK AO2 PK WND 15038/0038 CIG 006V012 SLP137 P0000 T10171022 FZRANO
PAGL 222356Z AUTO 15031G36KT 1/4SM +SN FZFG OVC012 M02/M03 A2995 RMK AO2 PK WND 15040/2259 SLP140 P0000 60000 T10221028 11022 21033 56004 FZRANO
PAGL 222256Z AUTO 15032G38KT 1/4SM +SN FZFG OVC014 M03/M03 A2996 RMK AO2 PK WND 15041/2215 SLP140 P0000 T10281033 FZRANO
PAGL 222156Z AUTO 15033G40KT 1/4SM +SN FZFG OVC014 M02/M03 A2995 RMK AO2 PK WND 15040/2151 SLP140 P0000 T10221033 FZRANO
PAGL 222056Z AUTO 15034G41KT 1/4SM +SN FZFG FEW010 OVC016 M03/M03 A2997 RMK AO2 PK WND 15041/2055 SLP144 P0000 60000 T10281033 58009 FZRANO
PAGL 222048Z AUTO 15032G38KT 1/4SM +SN FZFG FEW008 OVC016 M03/M03 A2997 RMK AO2 PK WND 15040/2028 P0000 FZRANO
PAGL 222019Z AUTO 15031G38KT 1/4SM +SN FZFG FEW008 OVC012 M03/M03 A2998 RMK AO2 PK WND 15038/2015 P0000 FZRANO
PAGL 221956Z AUTO 15030G36KT 1/4SM +SN FZFG OVC014 M03/M03 A2998 RMK AO2 PK WND 15036/1951 SLP150 P0000 T10281033 FZRANO
PAGL 221946Z AUTO 15028G36KT 1/4SM SN FZFG OVC014 M02/M03 A2998 RMK AO2 PK WND 16036/1939 P0000 FZRANO
PAGL 221938Z AUTO 15028KT 1/2SM SN FZFG FEW007 OVC014 M03/M03 A2998 RMK AO2 PK WND 15036/1925 P0000 FZRANO
PAGL 221928Z AUTO 15027G36KT 1/4SM SN FZFG FEW007 OVC014 M03/M03 A2998 RMK AO2 PK WND 15036/1925 P0000 FZRANO
PAGL 221905Z AUTO 14024KT 1/2SM SN FZFG SCT008 OVC012 M03/M04 A2998 RMK AO2 PK WND 14027/1905 P0000 FZRANO
PAGL 221856Z AUTO 15025KT 1/2SM SN FZFG BKN008 OVC012 M03/M03 A2999 RMK AO2 PK WND 15033/1822 CIG 007V011 SLP151 P0000 T10281033 FZRANO
PAGL 221840Z AUTO 14026G31KT 1/2SM SN FZFG BKN008 OVC014 M03/M03 A2999 RMK AO2 PK WND 15033/1822 CIG 004V011 P0000 FZRANO
PAGL 221821Z AUTO 15026G31KT 1/2SM SN FZFG BKN012 OVC017 M02/M03 A2999 RMK AO2 PK WND 15031/1821 P0000 FZRANO
PAGL 221818Z AUTO 15025G30KT 1/2SM SN FZFG OVC015 M02/M03 A2999 RMK AO2 PK WND 15030/1811 CIG 006V019 P0000 FZRANO
PAGL 221809Z AUTO 15024KT 1SM -SN BR FEW008 OVC015 M03/M03 A2999 RMK AO2 PK WND 14027/1804 P0000 FZRANO
PAGL 221807Z AUTO 14023KT 1 1/4SM -SN BR SCT010 OVC015 M03/M03 A2999 RMK AO2 PK WND 14027/1804 P0000 FZRANO
PAGL 221756Z AUTO 14024KT 1SM -SN BR SCT008 BKN012 OVC018 M03/M03 A2999 RMK AO2 PK WND 15029/1747 SLP153 P0000 60000 T10281033 11028 21033 56011 FZRANO
PAGL 221745Z AUTO 15022KT 1SM -SN BR FEW008 OVC015 M03/M03 A3000 RMK AO2 PK WND 14029/1717 P0000 FZRANO
PAGL 221737Z AUTO 14023KT 1SM -SN BR SCT010 OVC015 M03/M03 A3000 RMK AO2 PK WND 14029/1717 P0000 FZRANO
PAGL 221731Z AUTO 15024KT 3/4SM -SN BR OVC015 M03/M03 A2999 RMK AO2 PK WND 14029/1717 P0000 FZRANO
PAGL 221710Z AUTO 15024KT 1 1/4SM -SN BR OVC015 M03/M03 A3000 RMK AO2 PK WND 15029/1657 P0000 FZRANO
PAGL 221656Z AUTO 15025G29KT 1SM -SN BR OVC015 M03/M04 A3000 RMK AO2 PK WND 14031/1616 SLP157 P0000 T10281039 FZRANO
PAGL 221556Z AUTO 15025KT 1SM -SN BR OVC013 M03/M03 A3001 RMK AO2 PK WND 14030/1525 SLP159 P0000 T10281033 FZRANO
PAGL 221541Z AUTO 15024KT 1SM -SN BR OVC013 M03/M04 A3001 RMK AO2 PK WND 14030/1525 P0000 FZRANO
PAGL 221456Z AUTO 14024KT 1 1/4SM -SN BR OVC013 M03/M04 A3003 RMK AO2 PK WND 14027/1453 SLP164 P0000 60000 T10281039 58015 FZRANO
PAGL 221439Z AUTO 14022KT 1 1/2SM -SN BR OVC013 M03/M04 A3004 RMK AO2 PK WND 14026/1421 P0000 FZRANO
PAGL 221414Z AUTO 15021KT 1 1/2SM -SN BR OVC015 M03/M04 A3005 RMK AO2 PK WND 15026/1407 P0000 FZRANO
PAGL 221356Z AUTO 15022KT 2 1/2SM -SN BR OVC015 M03/M04 A3004 RMK AO2 PK WND 15027/1335 SLP170 P0000 T10281039 FZRANO
PAGL 221339Z AUTO 15022KT 2SM -SN BR OVC015 M03/M04 A3004 RMK AO2 PK WND 15027/1335 P0000 FZRANO
PAGL 221318Z AUTO 15022KT 1 3/4SM -SN BR OVC015 M03/M04 A3005 RMK AO2 P0000 FZRANO
PAGL 221256Z AUTO 16020G25KT 4SM -SN BR OVC015 M03/M04 A3006 RMK AO2 SLP176 P0000 T10331044 FZRANO
PAGL 221231Z AUTO 16018KT 5SM -SN BR OVC015 M03/M04 A3006 RMK AO2 P0000 FZRANO
PAGL 221207Z AUTO 16017KT 3SM -SN BR BKN012 OVC026 M03/M04 A3007 RMK AO2 P0000 FZRANO
PAGL 221156Z AUTO 15017KT 2SM -SN BR SCT009 BKN017 OVC026 M03/M04 A3007 RMK AO2 SLP180 P0000 60000 T10331044 11033 21061 53000 FZRANO
PAGL 221153Z AUTO 15018KT 2 1/2SM -SN BR SCT009 BKN017 OVC026 M03/M04 A3007 RMK AO2 P0000 FZRANO
PAGL 221125Z AUTO 16018KT 1 3/4SM -SN BR OVC017 M04/M04 A3006 RMK AO2 P0000 FZRANO
PAGL 221105Z AUTO 17016KT 2 1/2SM -SN BR BKN017 OVC027 M04/M05 A3006 RMK AO2 P0000 FZRANO
PAGL 221056Z AUTO 17015KT 3SM -SN BR SCT015 BKN024 OVC029 M04/M05 A3007 RMK AO2 SNB03 SLP179 P0000 T10391050 FZRANO
PAGL 220956Z AUTO 17013KT 10SM FEW044 OVC070 M05/M06 A3007 RMK AO2 SLP180 T10501061 FZRANO
PAGL 220856Z AUTO 18013KT 10SM BKN036 BKN075 M05/M07 A3008 RMK AO2 UPE0759 SLP181 P0000 60000 T10501067 410331050 53015 FZRANO
PAGL 220756Z AUTO 16011KT 9SM UP FEW010 OVC034 M04/M05 A3006 RMK AO2 UPB56SNE05B22E56 SLP175 P0000 T10441050 FZRANO
PAGL 220710Z AUTO 16008KT 9SM FEW018 OVC036 M04/M06 A3004 RMK AO2 SNE05 P0000 FZRANO
PAGL 220656Z AUTO 17010KT 9SM -SN BKN018 OVC036 M04/M06 A3004 RMK AO2 SNB44 SLP170 P0000 T10441061 FZRANO
PAGL 220556Z AUTO 16009KT 10SM BKN025 OVC032 M04/M07 A3003 RMK AO2 SNE09 SLP166 P0000 60000 T10441067 11033 21050 51017 FZRANO
PAGL 220546Z AUTO 16009KT 10SM OVC031 M04/M07 A3003 RMK AO2 SNE09 P0000 FZRANO
PAGL 220456Z AUTO 21012KT 9SM -SN OVC018 M04/M07 A3002 RMK AO2 UPB25E30SNB13E25B49 SLP162 P0000 T10441067 FZRANO
PAGL 220356Z AUTO 19010KT 10SM OVC018 M04/M06 A3000 RMK AO2 UPB00E50SNE00B10E19B36E45 SLP155 P0000 T10441061 FZRANO
PAGL 220256Z AUTO 20012KT 5SM -SN BR OVC018 M04/M06 A2998 RMK AO2 UPB39E43SNB26E39B50 SLP150 P0000 60000 T10441056 53017 FZRANO
PAGL 220156Z AUTO 19012KT 10SM BKN024 OVC029 M04/M06 A2996 RMK AO2 SLP142 T10441056 FZRANO
PAGL 220118Z AUTO 19016KT 10SM SCT010 BKN024 OVC029 M04/M05 A2994 RMK AO2 FZRANO
PAGL 220056Z AUTO 19018KT 10SM OVC012 M04/M05 A2994 RMK AO2 UPB13E15SNE13B20E32 SLP135 P0000 T10391050 FZRANO
PAGL 220045Z AUTO 18015KT 10SM BKN012 OVC029 M04/M05 A2994 RMK AO2 UPB13E15SNE13B20E32 P0000 FZRANO
PAGL 220031Z AUTO 18013KT 9SM -SN FEW014 BKN029 OVC037 M04/M06 A2993 RMK AO2 UPB13E15SNE13B20 P0000 FZRANO
PAGL 220005Z AUTO 19013KT 9SM -SN SCT010 BKN030 OVC050 M03/M05 A2993 RMK AO2 P0000 FZRANO
PAGL 212356Z AUTO 19015KT 9SM -SN BKN010 OVC028 M03/M05 A2993 RMK AO2 CIG 007V012 SLP132 P0000 60000 T10331050 11033 21039 53010 FZRANO
PAGL 212340Z AUTO 18016KT 4SM -SN BR BKN010 BKN015 OVC024 M04/M05 A2993 RMK AO2 P0000 FZRANO
PAGL 212320Z AUTO 18015KT 3SM -SN BR SCT015 BKN024 OVC030 M04/M05 A2992 RMK AO2 P0000 FZRANO
PAGL 212309Z AUTO 18015KT 2SM -SN BR BKN013 BKN024 OVC030 M04/M05 A2992 RMK AO2 VIS 1 1/2V4 P0000 FZRANO
PAGL 212256Z AUTO 19017KT 6SM -SN BR SCT013 BKN019 OVC031 M04/M05 A2992 RMK AO2 SLP127 P0000 T10391050 FZRANO
PAGL 212247Z AUTO 18015KT 4SM -SN BR BKN013 OVC019 M04/M05 A2991 RMK AO2 P0000 FZRANO
PAGL 212238Z AUTO 17014KT 3SM -SN BR BKN016 OVC025 M04/M05 A2991 RMK AO2 P0000 FZRANO
PAGL 212223Z AUTO 18015KT 1 1/4SM -SN BR OVC016 M04/M05 A2991 RMK AO2 P0000 FZRANO
PAGL 212203Z AUTO 18016KT 2SM -SN BR BKN016 OVC030 M04/M05 A2990 RMK AO2 VIS 1 1/2V4 P0000 FZRANO
PAGL 212156Z AUTO 17014KT 3SM -SN BR FEW010 BKN016 OVC030 M04/M05 A2990 RMK AO2 SLP122 P0000 T10391050 FZRANO
PAGL 212142Z AUTO 18014KT 6SM -SN BR SCT010 OVC030 M04/M05 A2989 RMK AO2 P0000 FZRANO
PAGL 212132Z AUTO 18015KT 8SM -SN BKN010 BKN015 OVC042 M04/M05 A2989 RMK AO2 CIG 009V014 P0000 FZRANO
PAGL 212110Z AUTO 16012KT 8SM -SN FEW010 BKN023 OVC065 M04/M05 A2988 RMK AO2 P0000 FZRANO
PAGL 212056Z AUTO 17012KT 2SM -SN BR FEW008 OVC020 M04/M04 A2988 RMK AO2 SLP115 P0000 60000 T10391044 53024 FZRANO
PAGL 211956Z AUTO 16014KT 1 3/4SM -SN BR FEW013 BKN018 OVC043 M04/M04 A2986 RMK AO2 UPB28E30SNE18B30 SLP107 P0000 T10391044 FZRANO
PAGL 211948Z AUTO 16014KT 3SM -SN BR SCT013 BKN031 OVC043 M04/M05 A2985 RMK AO2 UPB28E30SNE18B30 P0000 FZRANO